Island Venture — WDG3765 — position and weather

sailwx.info

Track history (hours):
 
Tides and Currents Weather Stations Pressure Air Temp Water Temp Dewpoint Dewpoint Depression Visibility Wind Speed Wind Dir Waves Ship Positions

Island Venture

More information available from US FCC via Universal Licensing System and Coast Guard Vessel Documentation Center.

Last reported at 2014-Jul-23 02:33 UTC. Time now 2014-Jul-23 03:16 UTC.
Position N 48°45' W 123°09'.

Type: Tug. MMSI: 367529420.

Date/timePositionNaut miles runAvg speedWind from/ knotsBaromVisibWave heightAir tempDewpointWater temp
2014-Jul-23 02:33N 48°45' W 123°09'2 2.4
2014-Jul-23 01:33N 48°42' W 123°11'4 4.1
2014-Jul-23 00:32N 48°39' W 123°13'4 4.2
2014-Jul-22 23:33N 48°35' W 123°12'6 6.0
2014-Jul-22 22:33N 48°29' W 123°08'7 7.0
2014-Jul-22 21:31N 48°24' W 123°01'13 6.7
2014-Jul-22 19:31N 48°13' W 122°50'5 4.7
2014-Jul-22 18:29N 48°10' W 122°44'5 4.8
2014-Jul-22 17:31N 48°06' W 122°39'6 6.6
2014-Jul-22 16:33N 48°00' W 122°36'7 7.0
2014-Jul-22 15:33N 47°55' W 122°29'7 7.1
2014-Jul-22 14:34N 47°48' W 122°26'024.1
2014-Jul-22 14:34N 47°48' W 122°26'7 6.6
2014-Jul-22 13:33N 47°42' W 122°27'0 0.0
2014-Jul-22 13:33N 47°42' W 122°27'6 5.8
2014-Jul-22 12:33N 47°36' W 122°23'0 0.0
2014-Jul-22 12:33N 47°36' W 122°23'2 1.5
2014-Jul-22 11:33N 47°35' W 122°22'0 0.0
2014-Jul-22 11:33N 47°35' W 122°22'0 0.0
2014-Jul-22 10:33N 47°35' W 122°22'0 0.4
2014-Jul-22 10:32N 47°35' W 122°22'1 1.3
2014-Jul-22 09:34N 47°34' W 122°21'0 6.1
2014-Jul-22 09:32N 47°34' W 122°21'0 0.2
2014-Jul-22 08:33N 47°34' W 122°21'0 0.0
2014-Jul-22 08:32N 47°34' W 122°21'0 0.0
2014-Jul-22 07:33N 47°34' W 122°21'0 0.0
2014-Jul-22 07:32N 47°34' W 122°21'0 0.0
2014-Jul-22 06:33N 47°34' W 122°21'1 0.0
2014-Jul-20 04:33N 47°35' W 122°22'0 2.2
2014-Jul-20 04:32N 47°35' W 122°22'0 0.3
2014-Jul-20 03:33N 47°36' W 122°22'0 0.9
2014-Jul-20 03:33N 47°36' W 122°22'5 5.2
2014-Jul-20 02:33N 47°39' W 122°28'0 4.7
2014-Jul-20 02:32N 47°39' W 122°28'6 6.1
2014-Jul-20 01:33N 47°45' W 122°27'0 5.2
2014-Jul-20 01:32N 47°45' W 122°27'6 6.3
2014-Jul-20 00:33N 47°51' W 122°29'0 5.6
2014-Jul-20 00:32N 47°51' W 122°29'5 5.4
2014-Jul-19 23:33N 47°56' W 122°33'5 4.9
2014-Jul-19 22:33N 47°60' W 122°38'10 4.6
2014-Jul-19 20:22N 48°09' W 122°44'5 6.1
2014-Jul-19 19:33N 48°13' W 122°48'7 6.3
2014-Jul-19 18:25N 48°20' W 122°47'5 5.7
2014-Jul-19 17:32N 48°24' W 122°45'5 5.5
2014-Jul-19 16:33N 48°30' W 122°44'5 5.0
2014-Jul-19 15:33N 48°35' W 122°45'5 5.3
2014-Jul-19 14:33N 48°40' W 122°43'5 5.5
2014-Jul-19 13:33N 48°45' W 122°47'7 6.7
2014-Jul-19 12:33N 48°49' W 122°56'7 7.2
2014-Jul-19 11:33N 48°52' W 123°06'7 6.9
2014-Jul-19 10:33N 48°56' W 123°14'7 7.3
2014-Jul-19 09:33N 49°01' W 123°22'7 6.7
2014-Jul-19 08:33N 49°06' W 123°29'6 6.2
2014-Jul-19 07:33N 49°11' W 123°35'6 5.9
2014-Jul-19 06:33N 49°14' W 123°42'6 6.5
2014-Jul-19 05:33N 49°18' W 123°50'7 6.7
2014-Jul-19 04:33N 49°23' W 123°58'6 6.4
2014-Jul-19 03:33N 49°27' W 124°05'6 5.9
2014-Jul-19 02:33N 49°31' W 124°12'5 5.5
2014-Jul-19 01:33N 49°33' W 124°19'6 5.7
2014-Jul-19 00:33N 49°36' W 124°27'5 5.5
2014-Jul-18 23:33N 49°40' W 124°33'2 1.8
2014-Jul-18 22:33N 49°42' W 124°33'0 0.1
2014-Jul-18 21:33N 49°42' W 124°33'0 0.0
2014-Jul-18 20:33N 49°42' W 124°33'0 0.0
2014-Jul-18 18:11N 49°42' W 124°33'2 2.7
2014-Jul-18 17:33N 49°40' W 124°32'5 5.5
2014-Jul-18 16:33N 49°36' W 124°27'7 7.1
2014-Jul-18 15:33N 49°32' W 124°18'7 7.1
2014-Jul-18 14:33N 49°28' W 124°08'6 6.4
2014-Jul-18 13:33N 49°25' W 124°00'7 6.6
2014-Jul-18 12:33N 49°21' W 123°51'6 6.4
2014-Jul-18 11:33N 49°17' W 123°44'6 5.7
2014-Jul-18 10:33N 49°14' W 123°37'6 5.5
2014-Jul-18 09:33N 49°10' W 123°30'6 5.7
2014-Jul-18 08:33N 49°07' W 123°24'6 5.6
2014-Jul-18 07:33N 49°03' W 123°18'5 5.2
2014-Jul-18 06:33N 48°59' W 123°12'5 5.1
2014-Jul-18 05:33N 48°56' W 123°06'6 6.4
2014-Jul-18 04:33N 48°52' W 122°59'7 6.9
2014-Jul-18 03:33N 48°47' W 122°51'6 6.5
2014-Jul-18 02:33N 48°43' W 122°44'7 7.4
2014-Jul-18 01:33N 48°35' W 122°45'8 8.1
2014-Jul-18 00:33N 48°27' W 122°44'7 6.3
2014-Jul-17 23:32N 48°21' W 122°45'8 5.7
2014-Jul-17 22:07N 48°13' W 122°48'5 8.3
2014-Jul-17 21:29N 48°09' W 122°42'9 9.1
2014-Jul-17 20:32N 48°01' W 122°37'8 8.6
2014-Jul-17 19:33N 47°55' W 122°29'5 5.1
2014-Jul-17 18:33N 47°55' W 122°21'5 5.1
2014-Jul-17 17:33N 47°58' W 122°16'4 3.7
2014-Jul-17 16:33N 48°01' W 122°13'1 0.2
2014-Jul-17 12:20N 48°01' W 122°11'0 0.0
2014-Jul-17 11:33N 48°01' W 122°11'0 0.0
2014-Jul-17 10:33N 48°01' W 122°11'0 0.0
2014-Jul-17 09:33N 48°01' W 122°11'0 0.0
2014-Jul-17 08:33N 48°01' W 122°11'0 0.0
2014-Jul-17 07:33N 48°01' W 122°11'0 0.0
2014-Jul-17 06:33N 48°01' W 122°11'0 0.0
2014-Jul-17 05:33N 48°01' W 122°11'0 0.0
2014-Jul-17 04:21N 48°01' W 122°11'1 1.3
2014-Jul-17 03:33N 48°01' W 122°13'3 2.9
2014-Jul-17 02:33N 47°59' W 122°15'2 1.8
2014-Jul-17 01:33N 47°59' W 122°18'0 0.2
2014-Jul-17 00:33N 47°59' W 122°18'0 0.3
2014-Jul-16 23:33N 47°58' W 122°17'4 4.3
2014-Jul-16 22:33N 47°55' W 122°21'2 5.4
2014-Jul-16 22:13N 47°53' W 122°22'4 5.4
2014-Jul-16 21:33N 47°50' W 122°24'1 5.8
2014-Jul-16 21:27N 47°49' W 122°24'6 6.4
2014-Jul-16 20:33N 47°44' W 122°26'0 6.3
2014-Jul-16 20:33N 47°44' W 122°26'6 6.1
2014-Jul-16 19:33N 47°38' W 122°25'0 7.5
2014-Jul-16 19:33N 47°38' W 122°25'3 3.1
2014-Jul-16 18:33N 47°35' W 122°22'1 7.7
2014-Jul-16 18:28N 47°35' W 122°22'1 1.0
2014-Jul-16 17:31N 47°34' W 122°21'0 0.3
2014-Jul-16 17:27N 47°34' W 122°21'0 0.6
2014-Jul-16 16:33N 47°34' W 122°21'0 0.0
2014-Jul-16 16:32N 47°34' W 122°21'1 0.6
2014-Jul-16 15:33N 47°34' W 122°21'0 0.0
2014-Jul-16 15:32N 47°34' W 122°21'1 1.3
2014-Jul-16 14:33N 47°35' W 122°22'0 4.2
2014-Jul-16 14:32N 47°35' W 122°22'2 2.3
2014-Jul-16 13:33N 47°36' W 122°25'0 2.4
2014-Jul-16 13:32N 47°36' W 122°25'5 4.9
2014-Jul-16 12:33N 47°32' W 122°29'1 5.2
2014-Jul-16 12:27N 47°31' W 122°29'6 6.4
2014-Jul-16 11:33N 47°26' W 122°31'3 6.3
2014-Jul-16 11:07N 47°23' W 122°32'4 6.9
2014-Jul-16 10:33N 47°20' W 122°33'7 6.6
2014-Jul-16 09:33N 47°13' W 122°35'5 4.5
2014-Jul-16 08:21N 47°08' W 122°39'0 0.0
2014-Jul-16 07:32N 47°08' W 122°39'0 0.0
2014-Jul-16 06:32N 47°08' W 122°39'0 0.0
2014-Jul-16 05:31N 47°08' W 122°39'0 0.0
2014-Jul-16 04:33N 47°08' W 122°39'0 0.0
2014-Jul-16 03:33N 47°08' W 122°39'7 6.7
2014-Jul-16 02:31N 47°14' W 122°34'6 6.1
2014-Jul-16 01:33N 47°18' W 122°28'3 1.0
2014-Jul-15 22:28N 47°17' W 122°23'2 1.7
2014-Jul-15 21:31N 47°17' W 122°25'4 4.3
2014-Jul-15 20:33N 47°19' W 122°31'5 4.7
2014-Jul-15 19:33N 47°15' W 122°34'6 6.1
2014-Jul-15 18:33N 47°10' W 122°39'2 1.4
2014-Jul-15 17:27N 47°08' W 122°39'0 0.0
2014-Jul-15 15:30N 47°08' W 122°39'6 5.1
2014-Jul-15 14:24N 47°13' W 122°35'7 7.9
2014-Jul-15 13:33N 47°19' W 122°32'7 5.6
2014-Jul-15 12:16N 47°16' W 122°22'3 4.0
2014-Jul-15 11:33N 47°18' W 122°26'4 3.8
2014-Jul-15 10:33N 47°21' W 122°25'6 5.8
2014-Jul-15 09:33N 47°27' W 122°23'7 7.2
2014-Jul-15 08:34N 47°34' W 122°25'0 8.5
2014-Jul-15 08:33N 47°34' W 122°25'3 3.0
2014-Jul-15 07:33N 47°34' W 122°21'0 0.0
2014-Jul-15 07:30N 47°34' W 122°21'0 0.5
2014-Jul-15 06:32N 47°34' W 122°21'0 2.9
2014-Jul-15 06:29N 47°35' W 122°22'4 4.0
2014-Jul-15 05:33N 47°34' W 122°27'2 6.8
2014-Jul-15 05:19N 47°32' W 122°28'6 7.6
2014-Jul-15 04:33N 47°27' W 122°31'7 7.1
2014-Jul-15 03:33N 47°20' W 122°33'5 4.9
2014-Jul-15 02:33N 47°15' W 122°34'3 2.9
2014-Jul-15 01:30N 47°12' W 122°36'5 4.3
2014-Jul-15 00:24N 47°08' W 122°39'0 0.3
2014-Jul-14 23:33N 47°08' W 122°39'0 0.4
2014-Jul-14 22:33N 47°08' W 122°39'0 0.0
2014-Jul-14 21:33N 47°08' W 122°39'0 0.0
2014-Jul-14 20:32N 47°08' W 122°39'1 0.7
2014-Jul-14 19:28N 47°09' W 122°38'0 0.2
2014-Jul-14 18:33N 47°09' W 122°38'0 0.0
2014-Jul-14 17:33N 47°09' W 122°38'0 0.0
2014-Jul-14 16:33N 47°09' W 122°38'0 0.0
2014-Jul-14 15:33N 47°09' W 122°38'0 0.0
2014-Jul-14 14:32N 47°09' W 122°38'1 0.7
2014-Jul-14 13:33N 47°08' W 122°39'0 0.1
2014-Jul-14 12:33N 47°08' W 122°39'0 0.3
2014-Jul-14 11:30N 47°08' W 122°39'5 4.2
2014-Jul-14 10:16N 47°13' W 122°35'6 8.7
2014-Jul-14 09:33N 47°19' W 122°33'7 7.1
2014-Jul-14 08:33N 47°26' W 122°31'4 6.8
2014-Jul-14 08:02N 47°29' W 122°30'3 6.9
2014-Jul-14 07:33N 47°32' W 122°28'1 7.5
2014-Jul-14 07:27N 47°33' W 122°27'4 4.5
2014-Jul-14 06:33N 47°35' W 122°22'0 0.0
2014-Jul-14 06:33N 47°35' W 122°22'1 2.2
2014-Jul-14 05:58N 47°34' W 122°21'0 0.3
2014-Jul-14 05:33N 47°34' W 122°21'1 1.4
2014-Jul-14 04:33N 47°35' W 122°22'0 4.3
2014-Jul-14 04:33N 47°35' W 122°22'2 2.2
2014-Jul-14 03:33N 47°33' W 122°21'0 4.8
2014-Jul-14 03:28N 47°34' W 122°21'1 1.0
2014-Jul-14 02:33N 47°34' W 122°21'0 0.0
2014-Jul-14 02:33N 47°34' W 122°21'0 0.0
2014-Jul-13 16:33N 47°34' W 122°21'0 0.3
2014-Jul-13 16:32N 47°34' W 122°21'2 1.9
2014-Jul-13 15:33N 47°36' W 122°23'1 7.8
2014-Jul-13 15:26N 47°37' W 122°24'6 7.2
2014-Jul-13 14:33N 47°43' W 122°26'0 7.6
2014-Jul-13 14:31N 47°43' W 122°25'8 7.9
2014-Jul-13 13:33N 47°51' W 122°23'1 8.0
2014-Jul-13 13:26N 47°51' W 122°23'8 8.7
2014-Jul-13 12:33N 47°58' W 122°17'5 4.8
2014-Jul-13 11:32N 48°01' W 122°11'0 0.0
2014-Jul-13 07:16N 48°01' W 122°11'0 0.0
2014-Jul-13 06:24N 48°01' W 122°11'0 0.0
2014-Jul-13 05:33N 48°01' W 122°11'0 0.0
2014-Jul-13 04:33N 48°01' W 122°11'0 0.0
2014-Jul-13 03:26N 48°01' W 122°11'  
Track history (hours):
 
Tides and Currents Weather Stations Pressure Air Temp Water Temp Dewpoint Dewpoint Depression Visibility Wind Speed Wind Dir Waves Ship Positions

Island Venture

More information available from US FCC via Universal Licensing System and Coast Guard Vessel Documentation Center.

Last reported at 2014-Jul-23 02:33 UTC. Time now 2014-Jul-23 03:16 UTC.
Position N 48°45' W 123°09'.

Type: Tug. MMSI: 367529420.

Date/timePositionNaut miles runAvg speedWind from/ knotsBaromVisibWave heightAir tempDewpointWater temp
2014-Jul-23 02:33N 48°45' W 123°09'2 2.4
2014-Jul-23 01:33N 48°42' W 123°11'4 4.1
2014-Jul-23 00:32N 48°39' W 123°13'4 4.2
2014-Jul-22 23:33N 48°35' W 123°12'6 6.0
2014-Jul-22 22:33N 48°29' W 123°08'7 7.0
2014-Jul-22 21:31N 48°24' W 123°01'13 6.7
2014-Jul-22 19:31N 48°13' W 122°50'5 4.7
2014-Jul-22 18:29N 48°10' W 122°44'5 4.8
2014-Jul-22 17:31N 48°06' W 122°39'6 6.6
2014-Jul-22 16:33N 48°00' W 122°36'7 7.0
2014-Jul-22 15:33N 47°55' W 122°29'7 7.1
2014-Jul-22 14:34N 47°48' W 122°26'024.1
2014-Jul-22 14:34N 47°48' W 122°26'7 6.6
2014-Jul-22 13:33N 47°42' W 122°27'0 0.0
2014-Jul-22 13:33N 47°42' W 122°27'6 5.8
2014-Jul-22 12:33N 47°36' W 122°23'0 0.0
2014-Jul-22 12:33N 47°36' W 122°23'2 1.5
2014-Jul-22 11:33N 47°35' W 122°22'0 0.0
2014-Jul-22 11:33N 47°35' W 122°22'0 0.0
2014-Jul-22 10:33N 47°35' W 122°22'0 0.4
2014-Jul-22 10:32N 47°35' W 122°22'1 1.3
2014-Jul-22 09:34N 47°34' W 122°21'0 6.1
2014-Jul-22 09:32N 47°34' W 122°21'0 0.2
2014-Jul-22 08:33N 47°34' W 122°21'0 0.0
2014-Jul-22 08:32N 47°34' W 122°21'0 0.0
2014-Jul-22 07:33N 47°34' W 122°21'0 0.0
2014-Jul-22 07:32N 47°34' W 122°21'0 0.0
2014-Jul-22 06:33N 47°34' W 122°21'1 0.0
2014-Jul-20 04:33N 47°35' W 122°22'0 2.2
2014-Jul-20 04:32N 47°35' W 122°22'0 0.3
2014-Jul-20 03:33N 47°36' W 122°22'0 0.9
2014-Jul-20 03:33N 47°36' W 122°22'5 5.2
2014-Jul-20 02:33N 47°39' W 122°28'0 4.7
2014-Jul-20 02:32N 47°39' W 122°28'6 6.1
2014-Jul-20 01:33N 47°45' W 122°27'0 5.2
2014-Jul-20 01:32N 47°45' W 122°27'6 6.3
2014-Jul-20 00:33N 47°51' W 122°29'0 5.6
2014-Jul-20 00:32N 47°51' W 122°29'5 5.4
2014-Jul-19 23:33N 47°56' W 122°33'5 4.9
2014-Jul-19 22:33N 47°60' W 122°38'10 4.6
2014-Jul-19 20:22N 48°09' W 122°44'5 6.1
2014-Jul-19 19:33N 48°13' W 122°48'7 6.3
2014-Jul-19 18:25N 48°20' W 122°47'5 5.7
2014-Jul-19 17:32N 48°24' W 122°45'5 5.5
2014-Jul-19 16:33N 48°30' W 122°44'5 5.0
2014-Jul-19 15:33N 48°35' W 122°45'5 5.3
2014-Jul-19 14:33N 48°40' W 122°43'5 5.5
2014-Jul-19 13:33N 48°45' W 122°47'7 6.7
2014-Jul-19 12:33N 48°49' W 122°56'7 7.2
2014-Jul-19 11:33N 48°52' W 123°06'7 6.9
2014-Jul-19 10:33N 48°56' W 123°14'7 7.3
2014-Jul-19 09:33N 49°01' W 123°22'7 6.7
2014-Jul-19 08:33N 49°06' W 123°29'6 6.2
2014-Jul-19 07:33N 49°11' W 123°35'6 5.9
2014-Jul-19 06:33N 49°14' W 123°42'6 6.5
2014-Jul-19 05:33N 49°18' W 123°50'7 6.7
2014-Jul-19 04:33N 49°23' W 123°58'6 6.4
2014-Jul-19 03:33N 49°27' W 124°05'6 5.9
2014-Jul-19 02:33N 49°31' W 124°12'5 5.5
2014-Jul-19 01:33N 49°33' W 124°19'6 5.7
2014-Jul-19 00:33N 49°36' W 124°27'5 5.5
2014-Jul-18 23:33N 49°40' W 124°33'2 1.8
2014-Jul-18 22:33N 49°42' W 124°33'0 0.1
2014-Jul-18 21:33N 49°42' W 124°33'0 0.0
2014-Jul-18 20:33N 49°42' W 124°33'0 0.0
2014-Jul-18 18:11N 49°42' W 124°33'2 2.7
2014-Jul-18 17:33N 49°40' W 124°32'5 5.5
2014-Jul-18 16:33N 49°36' W 124°27'7 7.1
2014-Jul-18 15:33N 49°32' W 124°18'7 7.1
2014-Jul-18 14:33N 49°28' W 124°08'6 6.4
2014-Jul-18 13:33N 49°25' W 124°00'7 6.6
2014-Jul-18 12:33N 49°21' W 123°51'6 6.4
2014-Jul-18 11:33N 49°17' W 123°44'6 5.7
2014-Jul-18 10:33N 49°14' W 123°37'6 5.5
2014-Jul-18 09:33N 49°10' W 123°30'6 5.7
2014-Jul-18 08:33N 49°07' W 123°24'6 5.6
2014-Jul-18 07:33N 49°03' W 123°18'5 5.2
2014-Jul-18 06:33N 48°59' W 123°12'5 5.1
2014-Jul-18 05:33N 48°56' W 123°06'6 6.4
2014-Jul-18 04:33N 48°52' W 122°59'7 6.9
2014-Jul-18 03:33N 48°47' W 122°51'6 6.5
2014-Jul-18 02:33N 48°43' W 122°44'7 7.4
2014-Jul-18 01:33N 48°35' W 122°45'8 8.1
2014-Jul-18 00:33N 48°27' W 122°44'7 6.3
2014-Jul-17 23:32N 48°21' W 122°45'8 5.7
2014-Jul-17 22:07N 48°13' W 122°48'5 8.3
2014-Jul-17 21:29N 48°09' W 122°42'9 9.1
2014-Jul-17 20:32N 48°01' W 122°37'8 8.6
2014-Jul-17 19:33N 47°55' W 122°29'5 5.1
2014-Jul-17 18:33N 47°55' W 122°21'5 5.1
2014-Jul-17 17:33N 47°58' W 122°16'4 3.7
2014-Jul-17 16:33N 48°01' W 122°13'1 0.2
2014-Jul-17 12:20N 48°01' W 122°11'0 0.0
2014-Jul-17 11:33N 48°01' W 122°11'0 0.0
2014-Jul-17 10:33N 48°01' W 122°11'0 0.0
2014-Jul-17 09:33N 48°01' W 122°11'0 0.0
2014-Jul-17 08:33N 48°01' W 122°11'0 0.0
2014-Jul-17 07:33N 48°01' W 122°11'0 0.0
2014-Jul-17 06:33N 48°01' W 122°11'0 0.0
2014-Jul-17 05:33N 48°01' W 122°11'0 0.0
2014-Jul-17 04:21N 48°01' W 122°11'1 1.3
2014-Jul-17 03:33N 48°01' W 122°13'3 2.9
2014-Jul-17 02:33N 47°59' W 122°15'2 1.8
2014-Jul-17 01:33N 47°59' W 122°18'0 0.2
2014-Jul-17 00:33N 47°59' W 122°18'0 0.3
2014-Jul-16 23:33N 47°58' W 122°17'4 4.3
2014-Jul-16 22:33N 47°55' W 122°21'2 5.4
2014-Jul-16 22:13N 47°53' W 122°22'4 5.4
2014-Jul-16 21:33N 47°50' W 122°24'1 5.8
2014-Jul-16 21:27N 47°49' W 122°24'6 6.4
2014-Jul-16 20:33N 47°44' W 122°26'0 6.3
2014-Jul-16 20:33N 47°44' W 122°26'6 6.1
2014-Jul-16 19:33N 47°38' W 122°25'0 7.5
2014-Jul-16 19:33N 47°38' W 122°25'3 3.1
2014-Jul-16 18:33N 47°35' W 122°22'1 7.7
2014-Jul-16 18:28N 47°35' W 122°22'1 1.0
2014-Jul-16 17:31N 47°34' W 122°21'0 0.3
2014-Jul-16 17:27N 47°34' W 122°21'0 0.6
2014-Jul-16 16:33N 47°34' W 122°21'0 0.0
2014-Jul-16 16:32N 47°34' W 122°21'1 0.6
2014-Jul-16 15:33N 47°34' W 122°21'0 0.0
2014-Jul-16 15:32N 47°34' W 122°21'1 1.3
2014-Jul-16 14:33N 47°35' W 122°22'0 4.2
2014-Jul-16 14:32N 47°35' W 122°22'2 2.3
2014-Jul-16 13:33N 47°36' W 122°25'0 2.4
2014-Jul-16 13:32N 47°36' W 122°25'5 4.9
2014-Jul-16 12:33N 47°32' W 122°29'1 5.2
2014-Jul-16 12:27N 47°31' W 122°29'6 6.4
2014-Jul-16 11:33N 47°26' W 122°31'3 6.3
2014-Jul-16 11:07N 47°23' W 122°32'4 6.9
2014-Jul-16 10:33N 47°20' W 122°33'7 6.6
2014-Jul-16 09:33N 47°13' W 122°35'5 4.5
2014-Jul-16 08:21N 47°08' W 122°39'0 0.0
2014-Jul-16 07:32N 47°08' W 122°39'0 0.0
2014-Jul-16 06:32N 47°08' W 122°39'0 0.0
2014-Jul-16 05:31N 47°08' W 122°39'0 0.0
2014-Jul-16 04:33N 47°08' W 122°39'0 0.0
2014-Jul-16 03:33N 47°08' W 122°39'7 6.7
2014-Jul-16 02:31N 47°14' W 122°34'6 6.1
2014-Jul-16 01:33N 47°18' W 122°28'3 1.0
2014-Jul-15 22:28N 47°17' W 122°23'2 1.7
2014-Jul-15 21:31N 47°17' W 122°25'4 4.3
2014-Jul-15 20:33N 47°19' W 122°31'5 4.7
2014-Jul-15 19:33N 47°15' W 122°34'6 6.1
2014-Jul-15 18:33N 47°10' W 122°39'2 1.4
2014-Jul-15 17:27N 47°08' W 122°39'0 0.0
2014-Jul-15 15:30N 47°08' W 122°39'6 5.1
2014-Jul-15 14:24N 47°13' W 122°35'7 7.9
2014-Jul-15 13:33N 47°19' W 122°32'7 5.6
2014-Jul-15 12:16N 47°16' W 122°22'3 4.0
2014-Jul-15 11:33N 47°18' W 122°26'4 3.8
2014-Jul-15 10:33N 47°21' W 122°25'6 5.8
2014-Jul-15 09:33N 47°27' W 122°23'7 7.2
2014-Jul-15 08:34N 47°34' W 122°25'0 8.5
2014-Jul-15 08:33N 47°34' W 122°25'3 3.0
2014-Jul-15 07:33N 47°34' W 122°21'0 0.0
2014-Jul-15 07:30N 47°34' W 122°21'0 0.5
2014-Jul-15 06:32N 47°34' W 122°21'0 2.9
2014-Jul-15 06:29N 47°35' W 122°22'4 4.0
2014-Jul-15 05:33N 47°34' W 122°27'2 6.8
2014-Jul-15 05:19N 47°32' W 122°28'6 7.6
2014-Jul-15 04:33N 47°27' W 122°31'7 7.1
2014-Jul-15 03:33N 47°20' W 122°33'5 4.9
2014-Jul-15 02:33N 47°15' W 122°34'3 2.9
2014-Jul-15 01:30N 47°12' W 122°36'5 4.3
2014-Jul-15 00:24N 47°08' W 122°39'0 0.3
2014-Jul-14 23:33N 47°08' W 122°39'0 0.4
2014-Jul-14 22:33N 47°08' W 122°39'0 0.0
2014-Jul-14 21:33N 47°08' W 122°39'0 0.0
2014-Jul-14 20:32N 47°08' W 122°39'1 0.7
2014-Jul-14 19:28N 47°09' W 122°38'0 0.2
2014-Jul-14 18:33N 47°09' W 122°38'0 0.0
2014-Jul-14 17:33N 47°09' W 122°38'0 0.0
2014-Jul-14 16:33N 47°09' W 122°38'0 0.0
2014-Jul-14 15:33N 47°09' W 122°38'0 0.0
2014-Jul-14 14:32N 47°09' W 122°38'1 0.7
2014-Jul-14 13:33N 47°08' W 122°39'0 0.1
2014-Jul-14 12:33N 47°08' W 122°39'0 0.3
2014-Jul-14 11:30N 47°08' W 122°39'5 4.2
2014-Jul-14 10:16N 47°13' W 122°35'6 8.7
2014-Jul-14 09:33N 47°19' W 122°33'7 7.1
2014-Jul-14 08:33N 47°26' W 122°31'4 6.8
2014-Jul-14 08:02N 47°29' W 122°30'3 6.9
2014-Jul-14 07:33N 47°32' W 122°28'1 7.5
2014-Jul-14 07:27N 47°33' W 122°27'4 4.5
2014-Jul-14 06:33N 47°35' W 122°22'0 0.0
2014-Jul-14 06:33N 47°35' W 122°22'1 2.2
2014-Jul-14 05:58N 47°34' W 122°21'0 0.3
2014-Jul-14 05:33N 47°34' W 122°21'1 1.4
2014-Jul-14 04:33N 47°35' W 122°22'0 4.3
2014-Jul-14 04:33N 47°35' W 122°22'2 2.2
2014-Jul-14 03:33N 47°33' W 122°21'0 4.8
2014-Jul-14 03:28N 47°34' W 122°21'1 1.0
2014-Jul-14 02:33N 47°34' W 122°21'0 0.0
2014-Jul-14 02:33N 47°34' W 122°21'0 0.0
2014-Jul-13 16:33N 47°34' W 122°21'0 0.3
2014-Jul-13 16:32N 47°34' W 122°21'2 1.9
2014-Jul-13 15:33N 47°36' W 122°23'1 7.8
2014-Jul-13 15:26N 47°37' W 122°24'6 7.2
2014-Jul-13 14:33N 47°43' W 122°26'0 7.6
2014-Jul-13 14:31N 47°43' W 122°25'8 7.9
2014-Jul-13 13:33N 47°51' W 122°23'1 8.0
2014-Jul-13 13:26N 47°51' W 122°23'8 8.7
2014-Jul-13 12:33N 47°58' W 122°17'5 4.8
2014-Jul-13 11:32N 48°01' W 122°11'0 0.0
2014-Jul-13 07:16N 48°01' W 122°11'0 0.0
2014-Jul-13 06:24N 48°01' W 122°11'0 0.0
2014-Jul-13 05:33N 48°01' W 122°11'0 0.0
2014-Jul-13 04:33N 48°01' W 122°11'0 0.0
2014-Jul-13 03:26N 48°01' W 122°11'  

Dump ship's entire track history